createdAt,value
2018-05-25T00:02:25.034Z,101843.61
2018-05-25T00:04:57.928Z,101847.46
2018-05-25T00:07:32.378Z,101844.36
2018-05-25T00:10:05.393Z,101838.77
2018-05-25T00:12:37.381Z,101844.21
2018-05-25T00:15:09.004Z,101842.69
2018-05-25T00:17:44.255Z,101840.05
2018-05-25T00:20:16.199Z,101837.81
2018-05-25T00:22:49.195Z,101829.06
2018-05-25T00:25:22.106Z,101830.58
2018-05-25T00:27:53.654Z,101832.98
2018-05-25T00:30:25.485Z,101826.97
2018-05-25T00:32:58.342Z,101834.98
2018-05-25T00:35:31.542Z,101836.00
2018-05-25T00:38:03.505Z,101830.58
2018-05-25T00:40:36.334Z,101826.87
2018-05-25T00:43:09.077Z,101822.30
2018-05-25T00:45:39.001Z,101821.61
2018-05-25T00:48:09.776Z,101817.44
2018-05-25T00:50:42.732Z,101817.28
2018-05-25T00:53:15.610Z,101814.77
2018-05-25T00:55:47.084Z,101819.53
2018-05-25T00:58:18.469Z,101819.67
2018-05-25T01:00:52.825Z,101816.15
2018-05-25T01:03:25.664Z,101813.97
2018-05-25T01:05:58.595Z,101813.81
2018-05-25T01:08:30.074Z,101816.87
2018-05-25T01:11:01.470Z,101813.55
2018-05-25T01:13:35.963Z,101811.47
2018-05-25T01:16:07.333Z,101812.85
2018-05-25T01:18:39.494Z,101812.09
2018-05-25T01:21:13.847Z,101804.20
2018-05-25T01:23:45.203Z,101809.92
2018-05-25T01:26:18.253Z,101807.64
2018-05-25T01:28:49.605Z,101802.59
2018-05-25T01:31:21.090Z,101811.52
2018-05-25T01:33:51.943Z,101804.18
2018-05-25T01:36:23.863Z,101808.19
2018-05-25T01:38:55.352Z,101804.97
2018-05-25T01:41:26.724Z,101802.08
2018-05-25T01:43:59.633Z,101802.84
2018-05-25T01:46:32.710Z,101803.56
2018-05-25T01:49:05.812Z,101805.60
2018-05-25T01:51:37.392Z,101807.02
2018-05-25T01:54:07.345Z,101802.67
2018-05-25T01:56:38.787Z,101803.33
2018-05-25T01:59:13.069Z,101805.83
2018-05-25T02:01:44.534Z,101804.52
2018-05-25T02:04:18.516Z,101803.30
2018-05-25T02:06:52.187Z,101807.64
2018-05-25T02:09:26.908Z,101806.98
2018-05-25T02:11:59.727Z,101806.13
2018-05-25T02:14:33.370Z,101805.36
2018-05-25T02:17:06.154Z,101815.38
2018-05-25T02:19:37.557Z,101813.84
2018-05-25T02:22:09.010Z,101818.67
2018-05-25T02:24:41.806Z,101818.52
2018-05-25T02:27:13.311Z,101816.95
2018-05-25T02:29:45.595Z,101812.34
2018-05-25T02:32:20.044Z,101816.30
2018-05-25T02:34:52.375Z,101812.42
2018-05-25T02:37:25.451Z,101814.73
2018-05-25T02:39:57.500Z,101818.73
2018-05-25T02:42:27.234Z,101813.88
2018-05-25T02:44:58.182Z,101812.18
2018-05-25T02:47:31.055Z,101813.30
2018-05-25T02:50:04.003Z,101811.78
2018-05-25T02:52:38.869Z,101813.17
2018-05-25T02:55:11.827Z,101812.77
2018-05-25T02:57:44.827Z,101810.18
2018-05-25T03:00:18.371Z,101814.93
2018-05-25T03:02:50.726Z,101821.91
2018-05-25T03:05:25.140Z,101817.66
2018-05-25T03:07:55.525Z,101824.87
2018-05-25T03:10:25.496Z,101820.31
2018-05-25T03:12:56.964Z,101826.17
2018-05-25T03:15:28.455Z,101827.13
2018-05-25T03:18:00.766Z,101835.55
2018-05-25T03:20:33.630Z,101836.80
2018-05-25T03:23:05.936Z,101833.65
2018-05-25T03:25:39.820Z,101833.73
2018-05-25T03:28:11.196Z,101841.62
2018-05-25T03:30:45.186Z,101838.27
2018-05-25T03:33:18.154Z,101843.55
2018-05-25T03:35:51.059Z,101838.10
2018-05-25T03:38:22.502Z,101831.28
2018-05-25T03:40:51.931Z,101824.20
2018-05-25T03:43:26.465Z,101837.84
2018-05-25T03:45:57.579Z,101826.80
2018-05-25T03:48:28.827Z,101829.47
2018-05-25T03:51:01.882Z,101831.20
2018-05-25T03:53:36.379Z,101836.55
2018-05-25T03:56:07.480Z,101832.90
2018-05-25T03:59:15.456Z,101835.84
2018-05-25T04:02:03.722Z,101825.34
2018-05-25T04:04:38.333Z,101836.48
2018-05-25T04:07:11.178Z,101839.12
2018-05-25T04:09:42.529Z,101840.38
2018-05-25T04:12:13.649Z,101837.92
2018-05-25T04:14:46.615Z,101840.11
2018-05-25T04:17:17.314Z,101840.14
2018-05-25T04:19:50.391Z,101833.41
2018-05-25T04:22:21.797Z,101832.69
2018-05-25T04:24:53.345Z,101835.81
2018-05-25T04:27:27.676Z,101829.41
2018-05-25T04:30:00.516Z,101834.38
2018-05-25T04:32:33.397Z,101838.16
2018-05-25T04:35:04.804Z,101830.84
2018-05-25T04:37:36.256Z,101833.96
2018-05-25T04:40:09.180Z,101842.40
2018-05-25T04:42:41.198Z,101842.12
2018-05-25T04:45:14.038Z,101840.84
2018-05-25T04:47:46.896Z,101840.94
2018-05-25T04:50:18.472Z,101839.31
2018-05-25T04:52:51.264Z,101845.04
2018-05-25T04:55:23.229Z,101843.36
2018-05-25T04:57:57.433Z,101844.70
2018-05-25T05:00:30.295Z,101846.44
2018-05-25T05:03:01.616Z,101848.53
2018-05-25T05:05:33.562Z,101842.05
2018-05-25T05:08:03.680Z,101844.31
2018-05-25T05:10:36.939Z,101845.23
2018-05-25T05:13:10.368Z,101845.18
2018-05-25T05:15:41.104Z,101838.49
2018-05-25T05:18:13.838Z,101842.60
2018-05-25T05:20:46.123Z,101840.00
2018-05-25T05:23:20.507Z,101845.38
2018-05-25T05:25:53.345Z,101849.38
2018-05-25T05:28:26.218Z,101843.09
2018-05-25T05:30:58.963Z,101846.13
2018-05-25T05:33:28.903Z,101854.41
2018-05-25T05:36:01.739Z,101847.49
2018-05-25T05:38:34.658Z,101850.66
2018-05-25T05:41:07.363Z,101849.95
2018-05-25T05:43:38.733Z,101853.33
2018-05-25T05:46:09.856Z,101851.12
2018-05-25T05:48:40.507Z,101860.67
2018-05-25T05:51:13.695Z,101855.59
2018-05-25T05:53:46.424Z,101851.47
2018-05-25T05:56:19.183Z,101860.70
2018-05-25T05:58:49.056Z,101865.08
2018-05-25T06:01:21.421Z,101868.30
2018-05-25T06:03:56.227Z,101871.82
2018-05-25T06:06:29.065Z,101867.37
2018-05-25T06:09:00.624Z,101874.84
2018-05-25T06:11:33.511Z,101877.55
2018-05-25T06:14:08.137Z,101879.09
2018-05-25T06:16:40.515Z,101879.48
2018-05-25T06:19:13.570Z,101885.55
2018-05-25T06:21:47.913Z,101877.61
2018-05-25T06:24:22.251Z,101878.11
2018-05-25T06:26:56.033Z,101878.91
2018-05-25T06:29:29.703Z,101884.46
2018-05-25T06:32:02.740Z,101888.10
2018-05-25T06:34:36.396Z,101890.23
2018-05-25T06:37:11.843Z,101895.50
2018-05-25T06:39:41.116Z,101892.89
2018-05-25T06:42:13.942Z,101893.54
2018-05-25T06:44:45.717Z,101892.95
2018-05-25T06:47:20.361Z,101895.51
2018-05-25T06:49:54.010Z,101897.31
2018-05-25T06:52:27.086Z,101898.91
2018-05-25T06:54:58.388Z,101898.63
2018-05-25T06:57:30.179Z,101900.45
2018-05-25T07:00:01.643Z,101898.23
2018-05-25T07:02:34.560Z,101894.11
2018-05-25T07:05:09.121Z,101890.44
2018-05-25T07:07:41.403Z,101898.44
2018-05-25T07:10:14.204Z,101906.27
2018-05-25T07:12:47.327Z,101907.45
2018-05-25T07:15:21.644Z,101905.51
2018-05-25T07:17:53.228Z,101907.89
2018-05-25T07:20:24.702Z,101909.02
2018-05-25T07:22:59.246Z,101910.81
2018-05-25T07:25:31.994Z,101913.75
2018-05-25T07:28:03.412Z,101913.34
2018-05-25T07:30:38.497Z,101921.22
2018-05-25T07:33:11.264Z,101914.12
2018-05-25T07:35:41.690Z,101912.18
2018-05-25T07:38:13.531Z,101919.41
2018-05-25T07:40:46.416Z,101919.16
2018-05-25T07:43:18.576Z,101915.66
2018-05-25T07:45:50.435Z,101926.77
2018-05-25T07:48:20.419Z,101925.16
2018-05-25T07:50:51.724Z,101922.72
2018-05-25T07:53:24.115Z,101918.23
2018-05-25T07:55:55.602Z,101922.04
2018-05-25T07:58:29.981Z,101922.17
2018-05-25T08:01:01.436Z,101919.66
2018-05-25T08:03:34.187Z,101919.46
2018-05-25T08:06:05.476Z,101919.45
2018-05-25T08:08:36.717Z,101921.64
2018-05-25T08:11:10.936Z,101922.20
2018-05-25T08:13:42.243Z,101927.42
2018-05-25T08:16:15.131Z,101926.73
2018-05-25T08:18:45.741Z,101918.98
2018-05-25T08:21:18.463Z,101925.80
2018-05-25T08:23:52.690Z,101929.95
2018-05-25T08:26:23.549Z,101933.53
2018-05-25T08:28:53.480Z,101932.05
2018-05-25T08:31:26.292Z,101936.37
2018-05-25T08:33:59.128Z,101935.06
2018-05-25T08:36:31.984Z,101926.16
2018-05-25T08:39:03.372Z,101937.53
2018-05-25T08:41:35.233Z,101932.23
2018-05-25T08:44:09.529Z,101927.63
2018-05-25T08:46:39.480Z,101926.20
2018-05-25T08:49:14.723Z,101923.44
2018-05-25T08:51:47.543Z,101922.81
2018-05-25T08:54:19.623Z,101930.73
2018-05-25T08:56:51.583Z,101928.36
2018-05-25T08:59:25.774Z,101926.73
2018-05-25T09:01:58.618Z,101924.36
2018-05-25T09:04:30.124Z,101920.23
2018-05-25T09:07:01.492Z,101925.60
2018-05-25T09:09:31.384Z,101920.44
2018-05-25T09:12:01.987Z,101925.02
2018-05-25T09:14:35.207Z,101931.95
2018-05-25T09:17:07.972Z,101928.04
2018-05-25T09:19:37.881Z,101927.90
2018-05-25T09:22:09.800Z,101923.27
2018-05-25T09:24:41.123Z,101927.95
2018-05-25T09:27:10.976Z,101924.73
2018-05-25T09:29:42.109Z,101924.08
2018-05-25T09:32:15.554Z,101928.22
2018-05-25T09:34:46.087Z,101930.66
2018-05-25T09:37:19.205Z,101941.33
2018-05-25T09:39:49.748Z,101934.73
2018-05-25T09:42:22.480Z,101932.63
2018-05-25T09:44:55.777Z,101922.40
2018-05-25T09:47:26.530Z,101920.94
2018-05-25T09:50:00.361Z,101929.42
2018-05-25T09:52:31.527Z,101927.97
2018-05-25T09:55:03.641Z,101930.64
2018-05-25T09:57:34.917Z,101926.94
2018-05-25T10:00:09.234Z,101929.14
2018-05-25T10:02:40.345Z,101924.74
2018-05-25T10:05:12.145Z,101930.22
2018-05-25T10:07:43.977Z,101932.88
2018-05-25T10:10:16.723Z,101933.83
2018-05-25T10:12:49.571Z,101924.88
2018-05-25T10:15:23.873Z,101923.97
2018-05-25T10:17:56.816Z,101924.44
2018-05-25T10:20:28.403Z,101925.30
2018-05-25T10:22:58.269Z,101920.95
2018-05-25T10:25:31.925Z,101930.45
2018-05-25T10:28:01.821Z,101926.31
2018-05-25T10:30:31.158Z,101919.39
2018-05-25T10:33:05.352Z,101922.10
2018-05-25T10:35:36.648Z,101917.30
2018-05-25T10:38:11.001Z,101905.88
2018-05-25T10:40:42.392Z,101906.30
2018-05-25T10:43:16.689Z,101902.70
2018-05-25T10:45:51.191Z,101905.53
2018-05-25T10:48:22.659Z,101909.55
2018-05-25T10:50:52.539Z,101907.00
2018-05-25T10:53:25.510Z,101905.17
2018-05-25T10:55:56.998Z,101912.12
2018-05-25T10:58:28.416Z,101901.66
2018-05-25T11:01:01.197Z,101904.97
2018-05-25T11:03:32.348Z,101905.53
2018-05-25T11:06:02.220Z,101901.95
2018-05-25T11:08:33.559Z,101906.25
2018-05-25T11:11:05.267Z,101905.02
2018-05-25T11:13:39.514Z,101903.44
2018-05-25T11:16:10.913Z,101904.77
2018-05-25T11:18:42.279Z,101909.36
2018-05-25T11:21:14.396Z,101909.28
2018-05-25T11:23:45.974Z,101903.44
2018-05-25T11:26:18.785Z,101902.44
2018-05-25T11:28:49.372Z,101906.00
2018-05-25T11:31:20.403Z,101909.77
2018-05-25T11:33:51.768Z,101910.36
2018-05-25T11:36:24.870Z,101912.03
2018-05-25T11:38:56.760Z,101911.83
2018-05-25T11:41:28.122Z,101905.84
2018-05-25T11:44:00.450Z,101902.83
2018-05-25T11:46:31.996Z,101896.88
2018-05-25T11:49:01.600Z,101896.08
2018-05-25T11:51:33.054Z,101893.84
2018-05-25T11:54:04.554Z,101902.44
2018-05-25T11:56:37.507Z,101899.44
2018-05-25T11:59:12.122Z,101890.89
2018-05-25T12:01:43.996Z,101887.59
2018-05-25T12:04:14.584Z,101889.84
2018-05-25T12:06:46.868Z,101893.36
2018-05-25T12:09:17.277Z,101893.69
2018-05-25T12:11:50.091Z,101890.42
2018-05-25T12:14:20.460Z,101897.52
2018-05-25T12:16:50.001Z,101891.80
2018-05-25T12:19:22.860Z,101895.23
2018-05-25T12:21:52.685Z,101893.86
2018-05-25T12:24:23.287Z,101900.33
2018-05-25T12:26:55.063Z,101898.29
2018-05-25T12:29:30.336Z,101892.46
2018-05-25T12:32:01.689Z,101891.20
2018-05-25T12:34:33.485Z,101891.25
2018-05-25T12:37:06.277Z,101893.38
2018-05-25T12:39:38.995Z,101891.23
2018-05-25T12:42:13.298Z,101895.88
2018-05-25T12:45:15.733Z,101889.17
2018-05-25T12:47:47.113Z,101888.30
2018-05-25T12:50:19.121Z,101887.00
2018-05-25T12:52:50.722Z,101890.77
2018-05-25T12:55:24.076Z,101883.89
2018-05-25T12:57:53.282Z,101875.95
2018-05-25T13:00:26.238Z,101879.19
2018-05-25T13:02:55.461Z,101880.92
2018-05-25T13:05:26.852Z,101882.17
2018-05-25T13:07:58.171Z,101876.58
2018-05-25T13:10:32.733Z,101884.39
2018-05-25T13:13:04.049Z,101879.44
2018-05-25T13:15:37.779Z,101881.52
2018-05-25T13:18:09.250Z,101885.23
2018-05-25T13:20:41.323Z,101877.31
2018-05-25T13:23:14.182Z,101879.31
2018-05-25T13:25:46.156Z,101878.81
2018-05-25T13:28:19.904Z,101877.54
2018-05-25T13:30:54.580Z,101871.94
2018-05-25T13:33:27.344Z,101877.69
2018-05-25T13:35:58.773Z,101873.30
2018-05-25T13:38:28.949Z,101876.25
2018-05-25T13:41:01.789Z,101888.02
2018-05-25T13:43:33.277Z,101886.32
2018-05-25T13:46:07.543Z,101879.52
2018-05-25T13:48:40.427Z,101886.70
2018-05-25T13:51:13.281Z,101879.75
2018-05-25T13:53:44.658Z,101876.98
2018-05-25T13:56:17.405Z,101883.52
2018-05-25T13:58:48.483Z,101885.20
2018-05-25T14:01:21.319Z,101886.50
2018-05-25T14:03:54.198Z,101879.69
2018-05-25T14:06:27.207Z,101884.14
2018-05-25T14:08:57.864Z,101883.13
2018-05-25T14:11:30.870Z,101882.97
2018-05-25T14:14:05.483Z,101882.20
2018-05-25T14:16:37.598Z,101880.44
2018-05-25T14:19:08.971Z,101887.80
2018-05-25T14:21:39.378Z,101889.38
2018-05-25T14:24:13.986Z,101885.73
2018-05-25T14:26:45.663Z,101886.19
2018-05-25T14:29:17.745Z,101892.33
2018-05-25T14:31:49.676Z,101887.41
2018-05-25T14:34:23.248Z,101889.73
2018-05-25T14:36:56.042Z,101888.53
2018-05-25T14:39:27.930Z,101885.51
2018-05-25T14:42:00.128Z,101893.26
2018-05-25T14:44:31.552Z,101899.78
2018-05-25T14:47:04.477Z,101885.20
2018-05-25T14:49:38.513Z,101881.25
2018-05-25T14:52:10.856Z,101886.09
2018-05-25T14:54:43.797Z,101883.78
2018-05-25T14:57:17.006Z,101881.47
2018-05-25T14:59:50.318Z,101882.22
2018-05-25T15:02:20.224Z,101887.11
2018-05-25T15:04:51.615Z,101874.94
2018-05-25T15:07:22.998Z,101874.23
2018-05-25T15:09:54.399Z,101873.78
2018-05-25T15:12:25.719Z,101876.91
2018-05-25T15:14:57.452Z,101877.91
2018-05-25T15:17:29.490Z,101875.66
2018-05-25T15:20:00.846Z,101870.13
2018-05-25T15:22:31.416Z,101869.43
2018-05-25T15:25:04.603Z,101866.66
2018-05-25T15:27:35.928Z,101873.59
2018-05-25T15:30:09.199Z,101863.02
2018-05-25T15:32:42.210Z,101872.75
2018-05-25T15:35:15.233Z,101870.79
2018-05-25T15:37:48.034Z,101865.14
2018-05-25T15:40:21.150Z,101869.30
2018-05-25T15:42:53.920Z,101869.88
2018-05-25T15:45:23.817Z,101877.00
2018-05-25T15:47:56.675Z,101867.50
2018-05-25T15:50:28.275Z,101868.73
2018-05-25T15:53:01.078Z,101872.27
2018-05-25T15:55:32.537Z,101869.33
2018-05-25T15:58:03.980Z,101864.86
2018-05-25T16:00:35.390Z,101867.77
2018-05-25T16:03:05.809Z,101862.50
2018-05-25T16:05:37.313Z,101858.88
2018-05-25T16:08:09.475Z,101862.34
2018-05-25T16:10:44.103Z,101858.61
2018-05-25T16:13:18.512Z,101853.50
2018-05-25T16:15:52.051Z,101851.17
2018-05-25T16:18:23.471Z,101845.63
2018-05-25T16:20:54.808Z,101841.78
2018-05-25T16:23:26.186Z,101837.30
2018-05-25T16:25:57.486Z,101843.74
2018-05-25T16:28:28.913Z,101839.63
2018-05-25T16:31:00.840Z,101839.98
2018-05-25T16:33:31.397Z,101843.68
2018-05-25T16:36:03.685Z,101837.52
2018-05-25T16:38:35.076Z,101835.78
2018-05-25T16:41:07.993Z,101835.41
2018-05-25T16:43:42.460Z,101829.59
2018-05-25T16:46:13.824Z,101831.26
2018-05-25T16:48:44.207Z,101829.92
2018-05-25T16:51:15.980Z,101827.89
2018-05-25T16:53:48.819Z,101821.06
2018-05-25T16:56:21.943Z,101820.91
2018-05-25T16:58:54.901Z,101825.59
2018-05-25T17:01:26.783Z,101823.77
2018-05-25T17:03:58.210Z,101824.33
2018-05-25T17:06:29.639Z,101821.48
2018-05-25T17:09:01.074Z,101825.45
2018-05-25T17:11:34.245Z,101817.64
2018-05-25T17:14:07.033Z,101820.67
2018-05-25T17:16:38.416Z,101821.65
2018-05-25T17:19:08.650Z,101827.16
2018-05-25T17:21:43.058Z,101828.59
2018-05-25T17:24:14.487Z,101822.72
2018-05-25T17:26:47.344Z,101828.59
2018-05-25T17:29:18.853Z,101830.17
2018-05-25T17:31:51.839Z,101833.50
2018-05-25T17:34:24.277Z,101830.28
2018-05-25T17:36:55.657Z,101839.80
2018-05-25T17:39:28.197Z,101848.62
2018-05-25T17:41:58.886Z,101845.19
2018-05-25T17:44:30.710Z,101843.00
2018-05-25T17:47:02.081Z,101846.79
2018-05-25T17:49:33.809Z,101850.18
2018-05-25T17:52:05.128Z,101847.27
2018-05-25T17:54:37.738Z,101857.40
2018-05-25T17:57:10.560Z,101856.55
2018-05-25T17:59:45.041Z,101859.25
2018-05-25T18:02:17.902Z,101860.75
2018-05-25T18:04:50.186Z,101869.27
2018-05-25T18:07:23.469Z,101870.39
2018-05-25T18:09:56.499Z,101871.59
2018-05-25T18:12:30.841Z,101867.87
2018-05-25T18:15:03.186Z,101869.98
2018-05-25T18:17:34.519Z,101872.11
2018-05-25T18:20:04.396Z,101882.93
2018-05-25T18:22:33.590Z,101884.55
2018-05-25T18:25:06.393Z,101874.80
2018-05-25T18:27:37.495Z,101873.09
2018-05-25T18:30:10.729Z,101872.75
2018-05-25T18:32:43.555Z,101877.31
2018-05-25T18:35:18.906Z,101877.02
2018-05-25T18:37:50.311Z,101877.87
2018-05-25T18:40:22.243Z,101881.13
2018-05-25T18:42:54.486Z,101875.32
2018-05-25T18:45:27.217Z,101871.69
2018-05-25T18:47:58.685Z,101868.61
2018-05-25T18:50:30.213Z,101868.80
2018-05-25T18:53:02.946Z,101875.57
2018-05-25T18:55:33.573Z,101881.92
2018-05-25T18:58:07.956Z,101879.25
2018-05-25T19:00:40.738Z,101878.37
2018-05-25T19:03:13.939Z,101880.70
2018-05-25T19:05:43.927Z,101882.94
2018-05-25T19:08:16.019Z,101880.97
2018-05-25T19:10:47.813Z,101887.46
2018-05-25T19:13:17.947Z,101885.88
2018-05-25T19:15:50.896Z,101889.24
2018-05-25T19:18:22.529Z,101897.50
2018-05-25T19:20:53.184Z,101899.69
2018-05-25T19:23:26.762Z,101899.22
2018-05-25T19:25:58.461Z,101903.98
2018-05-25T19:28:32.903Z,101911.87
2018-05-25T19:31:04.083Z,101904.58
2018-05-25T19:33:35.354Z,101913.27
2018-05-25T19:36:08.361Z,101914.77
2018-05-25T19:38:40.128Z,101914.81
2018-05-25T19:41:13.004Z,101916.76
2018-05-25T19:43:44.557Z,101923.55
2018-05-25T19:46:18.920Z,101921.70
2018-05-25T19:48:50.489Z,101922.75
2018-05-25T19:51:23.270Z,101922.98
2018-05-25T19:53:56.346Z,101921.95
2018-05-25T19:56:29.174Z,101926.42
2018-05-25T19:59:01.226Z,101933.73
2018-05-25T20:01:34.296Z,101938.51
2018-05-25T20:04:07.040Z,101935.13
2018-05-25T20:06:37.075Z,101940.70
2018-05-25T20:09:10.523Z,101941.01
2018-05-25T20:11:43.354Z,101940.39
2018-05-25T20:14:14.928Z,101947.90
2018-05-25T20:16:46.324Z,101950.17
2018-05-25T20:19:16.768Z,101950.54
2018-05-25T20:21:47.227Z,101950.74
2018-05-25T20:24:17.539Z,101951.87
2018-05-25T20:26:49.014Z,101950.45
2018-05-25T20:29:20.935Z,101952.38
2018-05-25T20:31:50.932Z,101955.50
2018-05-25T20:34:22.950Z,101951.48
2018-05-25T20:36:52.873Z,101951.44
2018-05-25T20:39:25.045Z,101949.39
2018-05-25T20:41:56.864Z,101950.83
2018-05-25T20:44:27.465Z,101955.48
2018-05-25T20:47:00.075Z,101953.27
2018-05-25T20:49:31.581Z,101959.19
2018-05-25T20:52:04.552Z,101956.42
2018-05-25T20:54:34.405Z,101959.12
2018-05-25T20:57:05.338Z,101960.58
2018-05-25T20:59:38.306Z,101955.41
2018-05-25T21:02:10.157Z,101956.65
2018-05-25T21:04:41.745Z,101959.55
2018-05-25T21:07:11.989Z,101967.22
2018-05-25T21:09:43.444Z,101966.61
2018-05-25T21:12:14.206Z,101967.08
2018-05-25T21:14:46.081Z,101966.27
2018-05-25T21:17:20.548Z,101969.56
2018-05-25T21:19:55.225Z,101972.52
2018-05-25T21:22:28.103Z,101969.00
2018-05-25T21:25:00.621Z,101977.56
2018-05-25T21:27:31.970Z,101976.59
2018-05-25T21:30:02.658Z,101976.97
2018-05-25T21:32:35.736Z,101971.95
2018-05-25T21:35:08.634Z,101974.07
2018-05-25T21:37:42.167Z,101974.81
2018-05-25T21:40:13.855Z,101974.49
2018-05-25T21:42:46.206Z,101979.53
2018-05-25T21:45:17.915Z,101980.19
2018-05-25T21:47:47.415Z,101974.07
2018-05-25T21:50:20.319Z,101982.94
2018-05-25T21:52:51.721Z,101976.47
2018-05-25T21:55:26.122Z,101975.08
2018-05-25T21:58:00.047Z,101978.52
2018-05-25T22:00:33.149Z,101984.11
2018-05-25T22:03:04.536Z,101983.65
2018-05-25T22:05:37.759Z,101985.67
2018-05-25T22:08:10.803Z,101985.41
2018-05-25T22:10:42.007Z,101985.87
2018-05-25T22:13:13.383Z,101981.98
2018-05-25T22:15:46.424Z,101984.38
2018-05-25T22:18:17.127Z,101981.02
2018-05-25T22:20:50.186Z,101980.20
2018-05-25T22:23:20.046Z,101978.43
2018-05-25T22:25:52.201Z,101981.50
2018-05-25T22:28:25.102Z,101987.14
2018-05-25T22:30:57.956Z,101986.20
2018-05-25T22:33:29.375Z,101985.95
2018-05-25T22:35:59.205Z,101984.64
2018-05-25T22:38:33.515Z,101987.30
2018-05-25T22:41:07.894Z,101981.91
2018-05-25T22:44:15.487Z,101984.66
2018-05-25T22:47:22.752Z,101982.94
2018-05-25T22:50:30.235Z,101984.14
2018-05-25T22:53:16.507Z,101982.67
2018-05-25T22:55:49.295Z,101987.38
2018-05-25T22:58:20.954Z,101987.81
2018-05-25T23:00:52.374Z,101987.81
2018-05-25T23:03:23.423Z,101982.44
2018-05-25T23:05:55.731Z,101988.47
2018-05-25T23:08:29.338Z,101987.61
2018-05-25T23:11:02.147Z,101985.91
2018-05-25T23:13:33.516Z,101986.05
2018-05-25T23:16:05.884Z,101986.37
2018-05-25T23:18:37.286Z,101987.16
2018-05-25T23:21:08.824Z,101990.13
2018-05-25T23:23:40.053Z,101983.84
2018-05-25T23:26:13.609Z,101980.28
2018-05-25T23:28:46.422Z,101985.22
2018-05-25T23:31:15.643Z,101977.27
2018-05-25T23:33:48.475Z,101978.41
2018-05-25T23:36:19.821Z,101985.83
2018-05-25T23:38:52.754Z,101990.05
2018-05-25T23:41:24.116Z,101989.50
2018-05-25T23:43:55.432Z,101987.04
2018-05-25T23:46:28.356Z,101988.56
2018-05-25T23:49:01.279Z,101989.09
2018-05-25T23:51:34.437Z,101987.77
2018-05-25T23:54:07.190Z,101994.88
2018-05-25T23:56:41.543Z,101991.44
2018-05-25T23:59:12.949Z,101995.72
